createdAt,value
2023-01-04T00:01:18.130Z,19.73
2023-01-04T00:03:45.751Z,19.63
2023-01-04T00:06:17.367Z,19.62
2023-01-04T00:08:47.230Z,19.67
2023-01-04T00:11:29.245Z,19.73
2023-01-04T00:14:03.547Z,19.72
2023-01-04T00:16:31.320Z,19.74
2023-01-04T00:18:58.764Z,19.79
2023-01-04T00:21:29.163Z,19.84
2023-01-04T00:23:58.247Z,19.80
2023-01-04T00:26:36.031Z,19.75
2023-01-04T00:29:06.695Z,19.75
2023-01-04T00:31:35.501Z,19.71
2023-01-04T00:34:05.471Z,19.68
2023-01-04T00:36:33.615Z,19.69
2023-01-04T00:39:09.062Z,19.74
2023-01-04T00:42:00.897Z,19.74
2023-01-04T00:44:29.144Z,19.75
2023-01-04T00:46:56.449Z,19.74
2023-01-04T00:49:23.774Z,19.70
2023-01-04T00:51:50.895Z,19.68
2023-01-04T00:54:19.175Z,19.70
2023-01-04T00:56:46.569Z,19.71
2023-01-04T00:59:17.791Z,19.70
2023-01-04T01:01:46.311Z,19.72
2023-01-04T01:04:17.194Z,19.75
2023-01-04T01:06:44.603Z,19.75
2023-01-04T01:09:12.041Z,19.79
2023-01-04T01:11:40.420Z,19.79
2023-01-04T01:14:09.222Z,19.81
2023-01-04T01:16:58.177Z,19.80
2023-01-04T01:19:29.438Z,19.75
2023-01-04T01:21:58.096Z,19.70
2023-01-04T01:24:26.109Z,19.65
2023-01-04T01:26:53.359Z,19.62
2023-01-04T01:29:20.533Z,19.56
2023-01-04T01:31:47.759Z,19.56
2023-01-04T01:34:15.088Z,19.53
2023-01-04T01:36:42.406Z,19.46
2023-01-04T01:39:09.457Z,19.45
2023-01-04T01:41:37.060Z,19.48
2023-01-04T01:44:26.537Z,19.52
2023-01-04T01:46:55.857Z,19.54
2023-01-04T01:49:26.214Z,19.49
2023-01-04T01:51:58.477Z,19.41
2023-01-04T01:54:49.997Z,19.37
2023-01-04T01:57:25.600Z,19.32
2023-01-04T01:59:56.071Z,19.28
2023-01-04T02:02:23.356Z,19.24
2023-01-04T02:04:52.171Z,19.26
2023-01-04T02:07:22.854Z,19.31
2023-01-04T02:09:51.535Z,19.38
2023-01-04T02:12:18.699Z,19.47
2023-01-04T02:14:48.628Z,19.45
2023-01-04T02:17:22.001Z,19.36
2023-01-04T02:20:08.208Z,19.26
2023-01-04T02:22:44.158Z,19.25
2023-01-04T02:25:29.361Z,19.22
2023-01-04T02:28:17.780Z,19.23
2023-01-04T02:30:44.858Z,19.25
2023-01-04T02:33:14.941Z,19.25
2023-01-04T02:36:00.410Z,19.25
2023-01-04T02:39:11.371Z,19.23
2023-01-04T02:42:23.580Z,19.29
2023-01-04T02:45:00.241Z,19.34
2023-01-04T02:47:49.373Z,19.39
2023-01-04T02:50:32.715Z,19.42
2023-01-04T02:53:10.947Z,19.44
2023-01-04T02:55:43.903Z,19.50
2023-01-04T02:58:29.031Z,19.40
2023-01-04T03:01:51.492Z,19.35
2023-01-04T03:05:01.388Z,19.26
2023-01-04T03:07:34.334Z,19.27
2023-01-04T03:10:10.080Z,19.29
2023-01-04T03:12:44.877Z,19.32
2023-01-04T03:15:24.043Z,19.31
2023-01-04T03:17:58.238Z,19.31
2023-01-04T03:20:30.229Z,19.34
2023-01-04T03:23:23.614Z,19.34
2023-01-04T03:26:16.820Z,19.33
2023-01-04T03:29:04.004Z,19.35
2023-01-04T03:31:59.407Z,19.42
2023-01-04T03:34:45.745Z,19.44
2023-01-04T03:37:18.544Z,19.49
2023-01-04T03:40:19.678Z,19.50
2023-01-04T03:43:14.315Z,19.45
2023-01-04T03:46:05.403Z,19.40
2023-01-04T03:48:39.992Z,19.35
2023-01-04T03:51:26.131Z,19.40
2023-01-04T03:54:12.113Z,19.38
2023-01-04T03:56:44.524Z,19.36
2023-01-04T03:59:13.195Z,19.36
2023-01-04T04:01:43.925Z,19.38
2023-01-04T04:04:30.219Z,19.35
2023-01-04T04:07:15.893Z,19.34
2023-01-04T04:09:43.677Z,19.33
2023-01-04T04:12:10.704Z,19.36
2023-01-04T04:14:37.790Z,19.37
2023-01-04T04:17:05.049Z,19.39
2023-01-04T04:19:32.084Z,19.43
2023-01-04T04:21:59.157Z,19.48
2023-01-04T04:24:27.686Z,19.46
2023-01-04T04:26:56.140Z,19.44
2023-01-04T04:29:24.536Z,19.45
2023-01-04T04:31:52.337Z,19.48
2023-01-04T04:34:19.479Z,19.47
2023-01-04T04:36:46.640Z,19.50
2023-01-04T04:39:13.786Z,19.49
2023-01-04T04:41:43.997Z,19.46
2023-01-04T04:44:16.786Z,19.44
2023-01-04T04:46:44.183Z,19.45
2023-01-04T04:49:13.832Z,19.46
2023-01-04T04:51:42.131Z,19.48
2023-01-04T04:54:10.667Z,19.48
2023-01-04T04:56:37.759Z,19.49
2023-01-04T04:59:05.563Z,19.50
2023-01-04T05:01:33.595Z,19.46
2023-01-04T05:04:00.646Z,19.45
2023-01-04T05:06:28.504Z,19.46
2023-01-04T05:08:55.684Z,19.40
2023-01-04T05:11:42.654Z,19.36
2023-01-04T05:14:10.359Z,19.26
2023-01-04T05:16:37.546Z,19.25
2023-01-04T05:19:04.680Z,19.25
2023-01-04T05:21:31.844Z,19.27
2023-01-04T05:23:58.881Z,19.29
2023-01-04T05:26:25.970Z,19.28
2023-01-04T05:28:54.128Z,19.28
2023-01-04T05:31:22.202Z,19.31
2023-01-04T05:33:49.297Z,19.31
2023-01-04T05:36:16.623Z,19.32
2023-01-04T05:38:43.807Z,19.32
2023-01-04T05:41:29.237Z,19.31
2023-01-04T05:43:56.392Z,19.28
2023-01-04T05:46:24.001Z,19.27
2023-01-04T05:48:51.827Z,19.23
2023-01-04T05:51:18.852Z,19.21
2023-01-04T05:53:45.867Z,19.19
2023-01-04T05:56:12.911Z,19.17
2023-01-04T05:58:39.941Z,19.12
2023-01-04T06:01:08.070Z,19.08
2023-01-04T06:03:35.964Z,19.03
2023-01-04T06:06:03.063Z,19.03
2023-01-04T06:08:30.042Z,19.06
2023-01-04T06:10:57.417Z,19.08
2023-01-04T06:13:24.470Z,19.09
2023-01-04T06:15:51.489Z,19.09
2023-01-04T06:18:18.558Z,19.07
2023-01-04T06:20:45.648Z,19.02
2023-01-04T06:23:12.792Z,19.00
2023-01-04T06:25:39.879Z,18.98
2023-01-04T06:28:06.960Z,18.99
2023-01-04T06:30:34.849Z,18.98
2023-01-04T06:33:01.983Z,18.93
2023-01-04T06:35:29.010Z,18.92
2023-01-04T06:37:56.019Z,18.95
2023-01-04T06:40:23.117Z,18.98
2023-01-04T06:42:50.111Z,19.02
2023-01-04T06:45:17.336Z,19.02
2023-01-04T06:47:44.779Z,18.98
2023-01-04T06:50:12.376Z,18.94
2023-01-04T06:52:39.671Z,18.94
2023-01-04T06:55:09.825Z,18.95
2023-01-04T06:57:37.104Z,18.94
2023-01-04T07:00:07.121Z,18.95
2023-01-04T07:02:34.388Z,18.99
2023-01-04T07:05:01.754Z,19.00
2023-01-04T07:07:28.917Z,19.00
2023-01-04T07:09:56.056Z,19.02
2023-01-04T07:12:23.080Z,19.04
2023-01-04T07:14:50.255Z,19.09
2023-01-04T07:17:17.284Z,19.10
2023-01-04T07:19:44.359Z,19.11
2023-01-04T07:22:11.683Z,19.15
2023-01-04T07:24:38.761Z,19.19
2023-01-04T07:27:05.814Z,19.20
2023-01-04T07:29:32.898Z,19.08
2023-01-04T07:32:00.002Z,19.03
2023-01-04T07:34:28.647Z,19.00
2023-01-04T07:36:56.240Z,19.03
2023-01-04T07:39:23.735Z,19.01
2023-01-04T07:41:51.648Z,19.04
2023-01-04T07:44:18.953Z,19.02
2023-01-04T07:46:46.035Z,19.00
2023-01-04T07:49:17.845Z,19.03
2023-01-04T07:51:49.325Z,19.04
2023-01-04T07:54:18.337Z,19.05
2023-01-04T07:56:47.075Z,19.06
2023-01-04T07:59:16.948Z,19.07
2023-01-04T08:01:45.274Z,19.08
2023-01-04T08:04:13.988Z,19.09
2023-01-04T08:06:44.230Z,19.11
2023-01-04T08:09:12.013Z,19.10
2023-01-04T08:11:39.432Z,19.06
2023-01-04T08:14:06.481Z,19.02
2023-01-04T08:16:36.190Z,19.00
2023-01-04T08:19:06.434Z,19.00
2023-01-04T08:21:35.322Z,19.06
2023-01-04T08:24:03.705Z,19.11
2023-01-04T08:26:31.500Z,19.08
2023-01-04T08:28:59.109Z,19.04
2023-01-04T08:31:28.785Z,19.03
2023-01-04T08:33:57.374Z,19.04
2023-01-04T08:36:27.877Z,18.99
2023-01-04T08:39:06.307Z,18.99
2023-01-04T08:42:04.800Z,19.05
2023-01-04T08:44:38.041Z,19.07
2023-01-04T08:47:05.671Z,19.05
2023-01-04T08:49:32.905Z,19.08
2023-01-04T08:52:00.054Z,19.12
2023-01-04T08:54:27.178Z,19.19
2023-01-04T08:56:54.334Z,19.24
2023-01-04T08:59:21.407Z,19.30
2023-01-04T09:01:48.642Z,19.34
2023-01-04T09:04:15.930Z,19.35
2023-01-04T09:06:43.240Z,19.34
2023-01-04T09:09:10.620Z,19.33
2023-01-04T09:11:39.030Z,19.32
2023-01-04T09:14:09.660Z,19.32
2023-01-04T09:16:40.910Z,19.34
2023-01-04T09:19:08.498Z,19.32
2023-01-04T09:21:35.921Z,19.33
2023-01-04T09:24:03.250Z,19.37
2023-01-04T09:26:30.543Z,19.39
2023-01-04T09:28:58.292Z,19.39
2023-01-04T09:31:28.152Z,19.40
2023-01-04T09:34:15.215Z,19.42
2023-01-04T09:36:44.087Z,19.43
2023-01-04T09:39:18.702Z,19.42
2023-01-04T09:42:05.724Z,19.38
2023-01-04T09:48:13.322Z,19.41
2023-01-04T09:50:51.966Z,19.42
2023-01-04T09:53:49.248Z,19.50
2023-01-04T09:56:32.845Z,19.50
2023-01-04T09:59:03.352Z,19.48
2023-01-04T10:01:45.333Z,19.52
2023-01-04T10:04:38.888Z,19.56
2023-01-04T10:07:06.006Z,19.63
2023-01-04T10:09:34.292Z,19.70
2023-01-04T10:12:27.245Z,19.75
2023-01-04T10:15:19.158Z,19.85
2023-01-04T10:21:33.062Z,19.96
2023-01-04T10:24:42.873Z,20.00
2023-01-04T10:27:28.111Z,20.01
2023-01-04T10:30:02.795Z,20.05
2023-01-04T10:32:43.848Z,20.07
2023-01-04T10:35:21.217Z,20.06
2023-01-04T10:38:04.639Z,20.07
2023-01-04T10:40:38.091Z,20.10
2023-01-04T10:43:05.087Z,20.16
2023-01-04T10:46:04.781Z,20.22
2023-01-04T10:48:36.293Z,20.23
2023-01-04T10:51:09.897Z,20.23
2023-01-04T10:53:47.321Z,20.25
2023-01-04T10:56:40.672Z,20.30
2023-01-04T10:59:14.852Z,20.32
2023-01-04T11:01:48.529Z,20.35
2023-01-04T11:04:17.980Z,20.35
2023-01-04T11:07:08.076Z,20.39
2023-01-04T11:09:47.371Z,20.46
2023-01-04T11:12:17.439Z,20.49
2023-01-04T11:14:44.530Z,20.52
2023-01-04T11:17:13.125Z,20.53
2023-01-04T11:19:41.700Z,20.58
2023-01-04T11:22:27.583Z,20.63
2023-01-04T11:25:33.887Z,20.71
2023-01-04T11:27:56.683Z,20.79
2023-01-04T11:30:27.896Z,20.83
2023-01-04T11:33:11.520Z,20.86
2023-01-04T11:35:44.550Z,20.90
2023-01-04T11:38:24.866Z,20.98
2023-01-04T11:41:05.730Z,21.09
2023-01-04T11:43:38.082Z,21.15
2023-01-04T11:46:08.166Z,21.21
2023-01-04T11:48:48.733Z,21.27
2023-01-04T11:51:37.166Z,21.28
2023-01-04T11:54:17.876Z,21.29
2023-01-04T12:00:20.038Z,21.36
2023-01-04T12:03:01.254Z,21.41
2023-01-04T12:05:32.935Z,21.40
2023-01-04T12:08:00.471Z,21.39
2023-01-04T12:10:28.935Z,21.41
2023-01-04T12:12:58.036Z,21.41
2023-01-04T12:15:33.151Z,21.35
2023-01-04T12:18:06.623Z,21.34
2023-01-04T12:20:34.026Z,21.37
2023-01-04T12:23:01.036Z,21.33
2023-01-04T12:25:42.194Z,21.32
2023-01-04T12:28:32.112Z,21.25
2023-01-04T12:31:25.991Z,21.22
2023-01-04T12:34:20.047Z,21.20
2023-01-04T12:36:53.180Z,21.18
2023-01-04T12:39:23.063Z,21.22
2023-01-04T12:42:02.634Z,21.28
2023-01-04T12:44:47.094Z,21.32
2023-01-04T12:47:48.109Z,21.34
2023-01-04T12:50:15.071Z,21.34
2023-01-04T12:55:33.499Z,21.36
2023-01-04T12:58:29.142Z,21.33
2023-01-04T13:01:21.295Z,21.31
2023-01-04T13:03:49.002Z,21.30
2023-01-04T13:06:20.700Z,21.34
2023-01-04T13:08:51.695Z,21.37
2023-01-04T13:11:58.822Z,21.45
2023-01-04T13:14:40.694Z,21.50
2023-01-04T13:17:19.693Z,21.53
2023-01-04T13:19:47.801Z,21.62
2023-01-04T13:22:29.386Z,21.65
2023-01-04T13:24:59.594Z,21.69
2023-01-04T13:27:27.892Z,21.76
2023-01-04T13:29:55.298Z,21.77
2023-01-04T13:32:28.899Z,21.80
2023-01-04T13:35:14.806Z,21.90
2023-01-04T13:37:47.756Z,21.97
2023-01-04T13:40:17.696Z,22.04
2023-01-04T13:43:13.762Z,22.06
2023-01-04T13:46:06.002Z,22.08
2023-01-04T13:48:37.699Z,22.09
2023-01-04T13:51:14.402Z,22.12
2023-01-04T13:53:42.084Z,22.21
2023-01-04T13:56:20.879Z,22.28
2023-01-04T13:58:48.042Z,22.26
2023-01-04T14:01:21.276Z,22.25
2023-01-04T14:03:53.798Z,22.24
2023-01-04T14:06:45.452Z,22.25
2023-01-04T14:09:13.807Z,22.26
2023-01-04T14:12:08.011Z,22.37
2023-01-04T14:14:59.119Z,22.46
2023-01-04T14:17:38.806Z,22.48
2023-01-04T14:20:11.692Z,22.48
2023-01-04T14:22:38.660Z,22.50
2023-01-04T14:25:48.815Z,22.54
2023-01-04T14:28:30.915Z,22.55
2023-01-04T14:31:04.862Z,22.61
2023-01-04T14:33:32.955Z,22.63
2023-01-04T14:36:04.598Z,22.70
2023-01-04T14:38:37.061Z,22.73
2023-01-04T14:41:29.947Z,22.74
2023-01-04T14:43:56.879Z,22.74
2023-01-04T14:46:24.093Z,22.78
2023-01-04T14:48:51.373Z,22.87
2023-01-04T14:51:21.500Z,22.90
2023-01-04T14:53:49.059Z,22.91
2023-01-04T14:56:18.882Z,22.87
2023-01-04T14:58:45.965Z,22.80
2023-01-04T15:01:13.658Z,22.84
2023-01-04T15:03:40.987Z,22.91
2023-01-04T15:06:08.312Z,22.99
2023-01-04T15:08:35.344Z,23.08
2023-01-04T15:11:02.764Z,23.17
2023-01-04T15:13:38.755Z,23.17
2023-01-04T15:16:07.330Z,23.23
2023-01-04T15:18:34.433Z,23.26
2023-01-04T15:21:03.071Z,23.32
2023-01-04T15:23:30.326Z,23.28
2023-01-04T15:25:57.402Z,23.30
2023-01-04T15:28:26.570Z,23.35
2023-01-04T15:30:54.355Z,23.28
2023-01-04T15:33:21.438Z,23.31
2023-01-04T15:35:48.618Z,23.29
2023-01-04T15:38:18.503Z,23.37
2023-01-04T15:40:45.782Z,23.39
2023-01-04T15:43:12.900Z,23.33
2023-01-04T15:45:40.608Z,23.34
2023-01-04T15:48:10.218Z,23.39
2023-01-04T15:50:39.871Z,23.44
2023-01-04T15:53:08.513Z,23.47
2023-01-04T15:55:37.783Z,23.55
2023-01-04T15:58:06.068Z,23.61
2023-01-04T16:00:33.383Z,23.56
2023-01-04T16:03:00.651Z,23.51
2023-01-04T16:05:27.946Z,23.49
2023-01-04T16:07:55.057Z,23.52
2023-01-04T16:10:22.115Z,23.56
2023-01-04T16:12:56.552Z,23.57
2023-01-04T16:15:24.442Z,23.61
2023-01-04T16:17:51.757Z,23.63
2023-01-04T16:20:19.569Z,23.62
2023-01-04T16:22:46.886Z,23.65
2023-01-04T16:25:14.375Z,23.70
2023-01-04T16:27:42.039Z,23.71
2023-01-04T16:30:13.754Z,23.70
2023-01-04T16:32:43.357Z,23.70
2023-01-04T16:35:11.417Z,23.64
2023-01-04T16:37:39.148Z,23.67
2023-01-04T16:40:08.448Z,23.69
2023-01-04T16:42:37.904Z,23.70
2023-01-04T16:45:06.312Z,23.70
2023-01-04T16:47:41.515Z,23.68
2023-01-04T16:50:10.029Z,23.62
2023-01-04T16:52:37.831Z,23.58
2023-01-04T16:55:06.188Z,23.53
2023-01-04T16:57:33.325Z,23.53
2023-01-04T17:00:00.387Z,23.52
2023-01-04T17:02:27.474Z,23.46
2023-01-04T17:04:59.943Z,23.45
2023-01-04T17:07:33.115Z,23.41
2023-01-04T17:10:01.530Z,23.41
2023-01-04T17:15:42.576Z,23.33
2023-01-04T17:18:04.071Z,23.32
2023-01-04T17:20:31.163Z,23.30
2023-01-04T17:22:58.618Z,23.27
2023-01-04T17:25:25.671Z,23.18
2023-01-04T17:27:52.758Z,23.14
2023-01-04T17:30:19.839Z,23.07
2023-01-04T17:32:46.892Z,23.01
2023-01-04T17:35:14.037Z,22.95
2023-01-04T17:37:41.081Z,22.90
2023-01-04T17:40:08.584Z,22.81
2023-01-04T17:42:35.677Z,22.74
2023-01-04T17:45:02.744Z,22.71
2023-01-04T17:47:29.859Z,22.70
2023-01-04T17:49:56.949Z,22.69
2023-01-04T17:52:30.716Z,22.67
2023-01-04T17:54:58.685Z,22.64
2023-01-04T17:57:25.834Z,22.60
2023-01-04T17:59:52.975Z,22.57
2023-01-04T18:02:20.190Z,22.55
2023-01-04T18:04:47.232Z,22.53
2023-01-04T18:07:14.335Z,22.48
2023-01-04T18:09:41.481Z,22.44
2023-01-04T18:12:08.672Z,22.39
2023-01-04T18:14:35.763Z,22.30
2023-01-04T18:17:02.924Z,22.24
2023-01-04T18:19:30.847Z,22.21
2023-01-04T18:21:58.622Z,22.13
2023-01-04T18:24:37.955Z,22.05
2023-01-04T18:27:25.127Z,21.97
2023-01-04T18:29:54.421Z,21.87
2023-01-04T18:32:22.690Z,21.80
2023-01-04T18:34:49.832Z,21.73
2023-01-04T18:37:18.926Z,21.66
2023-01-04T18:39:47.895Z,21.62
2023-01-04T18:42:15.244Z,21.57
2023-01-04T18:44:47.888Z,21.54
2023-01-04T18:47:16.460Z,21.52
2023-01-04T18:49:43.672Z,21.52
2023-01-04T18:52:10.720Z,21.51
2023-01-04T18:54:37.825Z,21.48
2023-01-04T18:57:05.482Z,21.46
2023-01-04T18:59:33.052Z,21.45
2023-01-04T19:02:02.300Z,21.46
2023-01-04T19:04:32.398Z,21.44
2023-01-04T19:07:00.150Z,21.42
2023-01-04T19:09:27.213Z,21.42
2023-01-04T19:11:54.345Z,21.41
2023-01-04T19:14:21.487Z,21.38
2023-01-04T19:16:48.551Z,21.37
2023-01-04T19:19:15.747Z,21.35
2023-01-04T19:21:42.753Z,21.34
2023-01-04T19:24:09.914Z,21.34
2023-01-04T19:26:37.341Z,21.32
2023-01-04T19:29:05.112Z,21.29
2023-01-04T19:31:32.425Z,21.28
2023-01-04T19:33:59.640Z,21.28
2023-01-04T19:36:27.375Z,21.24
2023-01-04T19:38:55.634Z,21.18
2023-01-04T19:41:31.158Z,21.14
2023-01-04T19:44:11.171Z,21.10
2023-01-04T19:46:39.571Z,21.08
2023-01-04T19:49:14.514Z,21.07
2023-01-04T19:51:44.710Z,21.03
2023-01-04T19:54:12.481Z,21.01
2023-01-04T19:56:40.139Z,21.00
2023-01-04T19:59:07.359Z,20.99
2023-01-04T20:01:34.591Z,20.99
2023-01-04T20:04:01.880Z,20.96
2023-01-04T20:06:30.589Z,20.94
2023-01-04T20:08:57.682Z,20.90
2023-01-04T20:11:25.058Z,20.87
2023-01-04T20:13:52.837Z,20.85
2023-01-04T20:16:20.041Z,20.84
2023-01-04T20:18:47.131Z,20.82
2023-01-04T20:21:14.949Z,20.80
2023-01-04T20:23:42.067Z,20.79
2023-01-04T20:26:13.591Z,20.78
2023-01-04T20:28:42.186Z,20.77
2023-01-04T20:31:12.566Z,20.75
2023-01-04T20:33:39.616Z,20.74
2023-01-04T20:36:08.968Z,20.72
2023-01-04T20:38:40.717Z,20.70
2023-01-04T20:41:09.631Z,20.65
2023-01-04T20:43:37.641Z,20.61
2023-01-04T20:46:27.633Z,20.62
2023-01-04T20:48:54.973Z,20.59
2023-01-04T20:51:24.465Z,20.58
2023-01-04T20:53:52.055Z,20.59
2023-01-04T20:56:21.829Z,20.61
2023-01-04T20:58:50.078Z,20.61
2023-01-04T21:01:18.568Z,20.59
2023-01-04T21:03:45.976Z,20.60
2023-01-04T21:06:15.582Z,20.57
2023-01-04T21:08:43.911Z,20.55
2023-01-04T21:11:13.192Z,20.52
2023-01-04T21:13:40.388Z,20.53
2023-01-04T21:16:08.362Z,20.54
2023-01-04T21:18:35.610Z,20.57
2023-01-04T21:21:07.601Z,20.56
2023-01-04T21:23:35.295Z,20.54
2023-01-04T21:26:10.884Z,20.55
2023-01-04T21:28:37.935Z,20.52
2023-01-04T21:31:22.260Z,20.56
2023-01-04T21:33:49.612Z,20.56
2023-01-04T21:36:22.941Z,20.59
2023-01-04T21:38:51.424Z,20.61
2023-01-04T21:41:18.872Z,20.66
2023-01-04T21:43:46.289Z,20.70
2023-01-04T21:46:15.241Z,20.69
2023-01-04T21:48:43.292Z,20.63
2023-01-04T21:51:10.785Z,20.56
2023-01-04T21:53:39.211Z,20.54
2023-01-04T21:56:11.442Z,20.50
2023-01-04T21:58:38.704Z,20.46
2023-01-04T22:01:32.488Z,20.38
2023-01-04T22:04:01.952Z,20.33
2023-01-04T22:06:29.528Z,20.30
2023-01-04T22:08:56.722Z,20.28
2023-01-04T22:11:23.699Z,20.23
2023-01-04T22:13:51.153Z,20.22
2023-01-04T22:16:19.665Z,20.20
2023-01-04T22:18:49.998Z,20.20
2023-01-04T22:21:20.157Z,20.19
2023-01-04T22:23:47.218Z,20.16
2023-01-04T22:26:14.268Z,20.15
2023-01-04T22:28:41.659Z,20.16
2023-01-04T22:31:11.597Z,20.16
2023-01-04T22:33:39.184Z,20.16
2023-01-04T22:36:17.143Z,20.15
2023-01-04T22:38:48.798Z,20.12
2023-01-04T22:41:19.267Z,20.12
2023-01-04T22:43:46.720Z,20.12
2023-01-04T22:46:18.204Z,20.11
2023-01-04T22:48:46.030Z,20.14
2023-01-04T22:51:15.531Z,20.19
2023-01-04T22:53:42.806Z,20.16
2023-01-04T22:56:19.960Z,20.17
2023-01-04T22:58:53.497Z,20.18
2023-01-04T23:01:23.262Z,20.19
2023-01-04T23:03:52.520Z,20.20
2023-01-04T23:06:20.058Z,20.21
2023-01-04T23:08:47.152Z,20.17
2023-01-04T23:11:17.363Z,20.08
2023-01-04T23:13:45.161Z,20.08
2023-01-04T23:16:14.420Z,20.10
2023-01-04T23:18:42.978Z,20.13
2023-01-04T23:21:10.407Z,20.14
2023-01-04T23:23:37.829Z,20.16
2023-01-04T23:26:11.346Z,20.20
2023-01-04T23:28:38.687Z,20.21
2023-01-04T23:31:08.030Z,20.22
2023-01-04T23:33:36.852Z,20.18
2023-01-04T23:36:18.712Z,20.09
2023-01-04T23:38:50.780Z,20.03
2023-01-04T23:41:18.247Z,19.92
2023-01-04T23:43:45.716Z,19.81
2023-01-04T23:46:18.423Z,19.72
2023-01-04T23:48:45.660Z,19.63
2023-01-04T23:51:13.380Z,19.63
2023-01-04T23:53:40.592Z,19.61
2023-01-04T23:56:14.539Z,19.55
2023-01-04T23:58:41.948Z,19.51
